Time;durP1;ratioP1;P1;durP2;ratioP2;P2;SDS_P1;SDS_P2;PMS_P1;PMS_P2;Temp;Humidity;BMP_temperature;BMP_pressure;BME280_temperature;BME280_humidity;BME280_pressure;Samples;Min_cycle;Max_cycle;Signal;HPM_P1;HPM_P2
2022/09/30 00:00:33;;;;;;;0.50;0.40;;;7.50;99.90;;;;;;5131114;27;20213;-76
2022/09/30 00:03:00;;;;;;;0.50;0.40;;;7.40;99.90;;;;;;5115504;28;20206;-76
2022/09/30 00:05:26;;;;;;;0.50;0.40;;;7.40;99.90;;;;;;5114857;28;20202;-77
2022/09/30 00:07:53;;;;;;;0.50;0.40;;;7.30;99.90;;;;;;5115256;28;20305;-76
2022/09/30 00:10:20;;;;;;;0.75;0.75;;;7.20;99.90;;;;;;5114745;28;20217;-76
2022/09/30 00:12:47;;;;;;;0.50;0.40;;;7.20;99.90;;;;;;5115082;28;20196;-77
2022/09/30 00:15:14;;;;;;;0.50;0.40;;;7.20;99.90;;;;;;5114842;28;20196;-76
2022/09/30 00:17:42;;;;;;;0.82;0.82;;;7.20;99.90;;;;;;5115284;28;20212;-77
2022/09/30 00:20:09;;;;;;;0.50;0.40;;;7.20;99.90;;;;;;5114680;28;20680;-76
2022/09/30 00:22:36;;;;;;;0.50;0.40;;;7.20;99.90;;;;;;5114873;28;20688;-76
2022/09/30 00:25:03;;;;;;;0.50;0.50;;;7.30;99.90;;;;;;5114197;28;20666;-76
2022/09/30 00:27:30;;;;;;;1.08;1.02;;;7.40;99.90;;;;;;5114260;28;20215;-76
2022/09/30 00:29:57;;;;;;;0.50;0.40;;;7.40;99.90;;;;;;5114520;28;20218;-77
2022/09/30 00:32:23;;;;;;;0.50;0.40;;;7.40;99.90;;;;;;5114759;28;20190;-76
2022/09/30 00:34:51;;;;;;;0.50;0.40;;;7.30;99.90;;;;;;5114588;28;20281;-76
2022/09/30 00:37:18;;;;;;;0.50;0.40;;;7.20;99.90;;;;;;5114567;28;20215;-77
2022/09/30 00:39:45;;;;;;;0.50;0.40;;;7.20;99.90;;;;;;5114442;28;20199;-77
2022/09/30 00:42:14;;;;;;;0.50;0.40;;;7.20;99.90;;;;;;5114663;28;20189;-76
2022/09/30 00:44:53;;;;;;;0.50;0.40;;;7.20;99.90;;;;;;5113796;27;20290;-77
2022/09/30 00:47:40;;;;;;;0.50;0.40;;;7.20;99.90;;;;;;5114276;28;20235;-77
2022/09/30 00:50:28;;;;;;;0.50;0.40;;;7.10;99.90;;;;;;5114680;28;20199;-76
2022/09/30 00:53:02;;;;;;;0.50;0.50;;;7.10;99.90;;;;;;5106257;28;20550;-76
2022/09/30 00:55:43;;;;;;;0.50;0.40;;;7.20;99.90;;;;;;5114118;28;20180;-77
2022/09/30 00:58:15;;;;;;;1.05;1.05;;;7.40;99.90;;;;;;5114363;27;20228;-76
2022/09/30 01:00:42;;;;;;;0.50;0.50;;;7.50;99.90;;;;;;5113935;28;20285;-77
2022/09/30 01:03:09;;;;;;;1.13;0.93;;;7.60;99.90;;;;;;5114228;28;20201;-77
2022/09/30 01:05:37;;;;;;;0.70;0.70;;;7.70;99.90;;;;;;5113793;28;20313;-75
2022/09/30 01:08:07;;;;;;;1.27;0.77;;;7.80;99.90;;;;;;5114089;28;20212;-76
2022/09/30 01:10:34;;;;;;;0.93;0.93;;;8.00;99.90;;;;;;5113839;28;20212;-76
2022/09/30 01:13:01;;;;;;;0.50;0.40;;;8.10;99.90;;;;;;5113839;28;20206;-77
2022/09/30 01:15:50;;;;;;;1.02;1.02;;;8.20;99.90;;;;;;5113381;28;20201;-77
2022/09/30 01:18:26;;;;;;;1.08;0.98;;;8.30;99.90;;;;;;5113809;28;20211;-76
2022/09/30 01:21:29;;;;;;;0.50;0.40;;;8.40;99.90;;;;;;5113789;28;20200;-76
2022/09/30 01:24:30;;;;;;;0.60;0.50;;;8.40;99.90;;;;;;5091974;28;20216;-76
2022/09/30 01:27:15;;;;;;;0.93;0.93;;;8.40;99.90;;;;;;5113174;28;20306;-76
2022/09/30 01:30:08;;;;;;;0.50;0.40;;;8.40;99.90;;;;;;5113695;27;20239;-76
2022/09/30 01:33:03;;;;;;;1.25;0.70;;;8.40;99.90;;;;;;5113365;28;20174;-76
2022/09/30 01:35:43;;;;;;;1.23;1.20;;;8.40;99.90;;;;;;5113096;28;20207;-77
2022/09/30 01:38:18;;;;;;;0.60;0.60;;;8.40;99.90;;;;;;5113192;28;20225;-76
2022/09/30 01:40:50;;;;;;;0.70;0.70;;;8.50;99.90;;;;;;5113653;28;20200;-76
2022/09/30 01:43:28;;;;;;;1.45;1.33;;;8.50;99.90;;;;;;5113539;28;20534;-76
2022/09/30 01:46:01;;;;;;;0.63;0.60;;;8.50;99.90;;;;;;5113275;28;20178;-76
2022/09/30 01:48:35;;;;;;;0.50;0.43;;;8.40;99.90;;;;;;5112737;28;20226;-76
2022/09/30 01:51:05;;;;;;;0.63;0.63;;;8.40;99.90;;;;;;5113523;28;20195;-76
2022/09/30 01:53:40;;;;;;;1.45;1.35;;;8.40;99.90;;;;;;5112828;28;20687;-75
2022/09/30 01:56:13;;;;;;;0.80;0.80;;;8.50;99.90;;;;;;5112839;28;20193;-76
2022/09/30 01:58:45;;;;;;;2.25;2.15;;;8.50;99.90;;;;;;5112647;28;20725;-76
2022/09/30 02:01:19;;;;;;;4.07;0.85;;;8.50;99.90;;;;;;5113307;28;20197;-76
2022/09/30 02:03:51;;;;;;;1.50;1.33;;;8.50;99.90;;;;;;5112691;28;20195;-75
2022/09/30 02:06:22;;;;;;;1.15;0.88;;;8.50;99.90;;;;;;5112471;28;20180;-76
2022/09/30 02:08:55;;;;;;;0.50;0.40;;;8.50;99.90;;;;;;5112870;28;20202;-76
2022/09/30 02:11:25;;;;;;;0.60;0.50;;;8.50;99.90;;;;;;5112907;28;20178;-77
2022/09/30 02:13:57;;;;;;;0.70;0.70;;;8.30;99.90;;;;;;5112635;28;20208;-74
2022/09/30 02:16:28;;;;;;;0.85;0.85;;;8.30;99.90;;;;;;5112596;28;20659;-77
2022/09/30 02:19:00;;;;;;;0.50;0.50;;;8.20;99.90;;;;;;5112983;28;20190;-76
2022/09/30 02:21:36;;;;;;;0.50;0.50;;;8.20;99.90;;;;;;5112789;28;20543;-74
2022/09/30 02:24:06;;;;;;;1.88;1.77;;;8.10;99.90;;;;;;5112096;28;20193;-76
2022/09/30 02:26:37;;;;;;;2.05;1.90;;;8.10;99.90;;;;;;5112516;28;20186;-77
2022/09/30 02:29:08;;;;;;;1.67;1.02;;;8.10;99.90;;;;;;5112550;28;20212;-76
2022/09/30 02:31:40;;;;;;;2.25;1.15;;;8.10;99.90;;;;;;5112188;28;20709;-76
2022/09/30 02:34:12;;;;;;;0.50;0.40;;;8.10;99.90;;;;;;5113461;28;20238;-76
2022/09/30 02:36:46;;;;;;;0.50;0.40;;;8.10;99.90;;;;;;5112358;28;20574;-76
2022/09/30 02:39:20;;;;;;;5.90;1.85;;;8.10;99.90;;;;;;5112340;27;20186;-76
2022/09/30 02:41:53;;;;;;;0.60;0.60;;;8.10;99.90;;;;;;5112517;28;20190;-76
2022/09/30 02:44:21;;;;;;;1.67;1.58;;;8.10;99.90;;;;;;5112204;28;20187;-76
2022/09/30 02:46:56;;;;;;;0.50;0.50;;;8.10;99.90;;;;;;5111898;28;20217;-76
2022/09/30 02:49:30;;;;;;;0.80;0.80;;;8.00;99.90;;;;;;5112178;28;20221;-75
2022/09/30 02:52:14;;;;;;;0.50;0.50;;;8.10;99.90;;;;;;5112350;28;20178;-75
2022/09/30 02:54:50;;;;;;;3.97;3.60;;;8.10;99.90;;;;;;5111602;28;20193;-76
2022/09/30 02:57:22;;;;;;;1.50;0.65;;;8.10;99.90;;;;;;5112037;28;20213;-76
2022/09/30 02:59:52;;;;;;;1.52;1.42;;;8.10;99.90;;;;;;5112313;28;20267;-77
2022/09/30 03:02:20;;;;;;;4.70;3.88;;;8.00;99.90;;;;;;5111566;28;20720;-77
2022/09/30 03:04:49;;;;;;;1.77;1.67;;;8.00;99.90;;;;;;5111723;28;20201;-75
2022/09/30 03:07:16;;;;;;;1.15;0.80;;;8.00;99.90;;;;;;5112066;28;20220;-77
2022/09/30 03:09:43;;;;;;;1.05;1.05;;;8.00;99.90;;;;;;5112062;28;20598;-76
2022/09/30 03:12:22;;;;;;;0.60;0.50;;;8.00;99.90;;;;;;5111976;28;20290;-76
2022/09/30 03:15:19;;;;;;;0.50;0.40;;;8.00;99.90;;;;;;5111239;28;20193;-77
2022/09/30 03:18:05;;;;;;;1.27;1.17;;;7.90;99.90;;;;;;5111875;28;20644;-76
2022/09/30 03:20:44;;;;;;;4.22;1.35;;;7.80;99.90;;;;;;5112077;28;20264;-76
2022/09/30 03:23:36;;;;;;;0.60;0.55;;;7.90;99.90;;;;;;5120061;28;20197;-77
2022/09/30 03:26:14;;;;;;;0.95;0.95;;;7.80;99.90;;;;;;5116714;28;20189;-77
2022/09/30 03:28:53;;;;;;;1.77;1.67;;;7.80;99.90;;;;;;5117737;28;20224;-76
2022/09/30 03:31:28;;;;;;;2.97;2.25;;;7.80;99.90;;;;;;5120403;28;20259;-77
2022/09/30 03:34:03;;;;;;;7.55;0.73;;;7.80;99.90;;;;;;5131485;28;20649;-76
2022/09/30 03:36:39;;;;;;;1.58;1.48;;;7.80;99.90;;;;;;5132088;28;20198;-76
2022/09/30 03:39:16;;;;;;;0.90;0.90;;;7.80;99.90;;;;;;5131609;28;20188;-76
2022/09/30 03:41:48;;;;;;;0.50;0.50;;;7.90;99.90;;;;;;5132091;28;20200;-76
2022/09/30 03:44:22;;;;;;;1.10;1.05;;;7.90;99.90;;;;;;5131886;28;20223;-76
2022/09/30 03:46:52;;;;;;;1.02;1.02;;;7.90;99.90;;;;;;5131704;28;20226;-76
2022/09/30 03:49:31;;;;;;;0.70;0.50;;;7.80;99.90;;;;;;5131846;28;20286;-76
2022/09/30 03:52:04;;;;;;;0.50;0.50;;;7.90;99.90;;;;;;5132080;28;20695;-77
2022/09/30 03:54:32;;;;;;;0.50;0.40;;;7.90;99.90;;;;;;5131777;28;20191;-76
2022/09/30 03:57:04;;;;;;;0.60;0.60;;;7.90;99.90;;;;;;5132129;28;20581;-77
2022/09/30 03:59:30;;;;;;;1.73;1.48;;;7.90;99.90;;;;;;5132013;28;20190;-76
2022/09/30 04:01:57;;;;;;;0.50;0.50;;;7.90;99.90;;;;;;5131727;28;20279;-76
2022/09/30 04:04:24;;;;;;;5.30;3.70;;;7.80;99.90;;;;;;5131670;28;20233;-76
2022/09/30 04:06:51;;;;;;;1.55;1.02;;;7.70;99.90;;;;;;5131491;28;20217;-76
2022/09/30 04:09:19;;;;;;;2.50;2.40;;;7.80;99.90;;;;;;5131608;28;20202;-76
2022/09/30 04:11:46;;;;;;;0.52;0.52;;;7.80;99.90;;;;;;5131985;28;20287;-77
2022/09/30 04:14:13;;;;;;;0.50;0.40;;;7.80;99.90;;;;;;5131217;28;20309;-76
2022/09/30 04:16:41;;;;;;;0.50;0.40;;;7.70;99.90;;;;;;5132038;28;20202;-76
2022/09/30 04:19:08;;;;;;;0.90;0.77;;;7.60;99.90;;;;;;5131804;28;20537;-76
2022/09/30 04:21:35;;;;;;;1.08;0.88;;;7.60;99.90;;;;;;5131823;28;20281;-76
2022/09/30 04:24:02;;;;;;;0.50;0.40;;;7.70;99.90;;;;;;5130871;28;20290;-77
2022/09/30 04:26:30;;;;;;;1.25;1.15;;;7.70;99.90;;;;;;5131289;27;20225;-77
2022/09/30 04:28:57;;;;;;;7.35;2.22;;;7.70;99.90;;;;;;5134549;27;20198;-76
2022/09/30 04:31:24;;;;;;;0.65;0.65;;;7.70;99.90;;;;;;5135341;27;20226;-77
2022/09/30 04:33:51;;;;;;;0.50;0.40;;;7.70;99.90;;;;;;5135221;27;20190;-76
2022/09/30 04:36:18;;;;;;;1.05;1.05;;;7.70;99.90;;;;;;5134817;27;20725;-76
2022/09/30 04:38:45;;;;;;;0.88;0.88;;;7.60;99.90;;;;;;5135298;27;20227;-76
2022/09/30 04:41:14;;;;;;;0.80;0.80;;;7.60;99.90;;;;;;5135121;27;20196;-76
2022/09/30 04:43:45;;;;;;;1.23;0.80;;;7.60;99.90;;;;;;5132912;27;20236;-76
2022/09/30 04:46:12;;;;;;;0.60;0.60;;;7.50;99.90;;;;;;5114456;28;20239;-76
2022/09/30 04:48:39;;;;;;;0.98;0.98;;;7.60;99.90;;;;;;5114262;28;20719;-76
2022/09/30 04:51:06;;;;;;;0.50;0.40;;;7.50;99.90;;;;;;5114226;28;20221;-76
2022/09/30 04:53:33;;;;;;;0.80;0.70;;;7.50;99.90;;;;;;5114476;28;20650;-75
2022/09/30 04:56:01;;;;;;;0.50;0.50;;;7.40;99.90;;;;;;5114084;28;20218;-77
2022/09/30 04:58:28;;;;;;;0.60;0.50;;;7.40;99.90;;;;;;5114242;28;20216;-77
2022/09/30 05:01:02;;;;;;;0.60;0.60;;;7.40;99.90;;;;;;5113638;28;20187;-77
2022/09/30 05:03:29;;;;;;;0.50;0.40;;;7.40;99.90;;;;;;5114456;28;20181;-77
2022/09/30 05:05:56;;;;;;;2.35;1.58;;;7.40;99.90;;;;;;5113728;28;20189;-77
2022/09/30 05:08:22;;;;;;;0.70;0.70;;;7.40;99.90;;;;;;5114153;28;20301;-74
2022/09/30 05:10:56;;;;;;;0.90;0.80;;;7.30;99.90;;;;;;5113510;28;20221;-77
2022/09/30 05:13:24;;;;;;;0.50;0.40;;;7.40;99.90;;;;;;5113407;28;20220;-77
2022/09/30 05:15:51;;;;;;;0.50;0.50;;;7.40;99.90;;;;;;5113229;28;20661;-77
2022/09/30 05:18:20;;;;;;;0.50;0.40;;;7.40;99.90;;;;;;5113752;28;20213;-77
2022/09/30 05:20:49;;;;;;;2.75;1.30;;;7.40;99.90;;;;;;5113468;28;20192;-77
2022/09/30 05:23:17;;;;;;;0.50;0.40;;;7.30;99.90;;;;;;5113713;28;20211;-77
2022/09/30 05:25:44;;;;;;;0.50;0.50;;;7.40;99.90;;;;;;5112173;28;20218;-76
2022/09/30 05:28:11;;;;;;;2.78;2.67;;;7.40;99.90;;;;;;5113920;28;20625;-76
2022/09/30 05:30:38;;;;;;;2.60;1.90;;;7.40;99.90;;;;;;5113501;28;20209;-77
2022/09/30 05:33:05;;;;;;;0.50;0.40;;;7.40;99.90;;;;;;5113096;28;20536;-76
2022/09/30 05:35:34;;;;;;;1.13;1.02;;;7.40;99.90;;;;;;5113031;28;20217;-77
2022/09/30 05:38:03;;;;;;;0.77;0.77;;;7.30;99.90;;;;;;5113175;28;20242;-75
2022/09/30 05:40:30;;;;;;;0.50;0.50;;;7.30;99.90;;;;;;5112708;28;20664;-75
2022/09/30 05:42:57;;;;;;;2.00;1.95;;;7.30;99.90;;;;;;5122847;27;20207;-76
2022/09/30 05:45:24;;;;;;;0.50;0.43;;;7.40;99.90;;;;;;5132582;27;20697;-75
2022/09/30 05:47:52;;;;;;;0.50;0.40;;;7.40;99.90;;;;;;5133971;27;20668;-76
2022/09/30 05:50:19;;;;;;;2.83;2.72;;;7.30;99.90;;;;;;5133221;27;20215;-76
2022/09/30 05:52:48;;;;;;;0.50;0.50;;;7.30;99.90;;;;;;5133737;27;20733;-76
2022/09/30 05:55:15;;;;;;;0.82;0.63;;;7.50;99.90;;;;;;5133127;27;20586;-77
2022/09/30 05:57:42;;;;;;;0.95;0.85;;;7.60;99.90;;;;;;5133627;27;20210;-76
2022/09/30 06:00:10;;;;;;;2.78;1.05;;;7.70;99.90;;;;;;5133556;27;20189;-76
2022/09/30 06:02:37;;;;;;;0.50;0.40;;;7.80;99.90;;;;;;5133068;27;20198;-76
2022/09/30 06:05:05;;;;;;;2.25;1.55;;;7.80;99.90;;;;;;5132264;27;20196;-76
2022/09/30 06:07:34;;;;;;;0.50;0.40;;;7.80;99.90;;;;;;5133175;27;20216;-75
2022/09/30 06:10:03;;;;;;;1.95;1.85;;;7.90;99.90;;;;;;5133209;27;20200;-75
2022/09/30 06:12:30;;;;;;;3.33;2.75;;;8.00;99.90;;;;;;5132647;27;20211;-76
2022/09/30 06:14:56;;;;;;;0.95;0.95;;;8.00;99.90;;;;;;5132991;27;20623;-76
2022/09/30 06:17:23;;;;;;;1.45;1.35;;;8.10;99.90;;;;;;5132533;27;20221;-74
2022/09/30 06:19:50;;;;;;;0.70;0.70;;;8.20;99.90;;;;;;5133402;27;20198;-76
2022/09/30 06:22:17;;;;;;;1.70;1.63;;;8.20;99.90;;;;;;5133079;27;20201;-76
2022/09/30 06:24:45;;;;;;;4.05;3.83;;;8.20;99.90;;;;;;5132625;27;20197;-76
2022/09/30 06:27:13;;;;;;;2.35;2.15;;;8.20;99.90;;;;;;5132302;27;20212;-76
2022/09/30 06:29:40;;;;;;;3.00;2.40;;;8.20;99.90;;;;;;5132639;27;20215;-76
2022/09/30 06:32:07;;;;;;;3.75;3.25;;;8.30;99.90;;;;;;5132892;27;20726;-77
2022/09/30 06:34:33;;;;;;;1.63;1.52;;;8.30;99.90;;;;;;5134481;27;20201;-78
2022/09/30 06:37:00;;;;;;;2.17;2.08;;;8.40;99.90;;;;;;5133493;27;20281;-77
2022/09/30 06:39:27;;;;;;;0.50;0.40;;;8.50;99.90;;;;;;5132210;27;20293;-73
2022/09/30 06:41:55;;;;;;;2.15;2.05;;;8.90;99.90;;;;;;5132485;27;20188;-76
2022/09/30 06:44:23;;;;;;;3.28;2.95;;;8.90;99.90;;;;;;5132305;27;20375;-76
2022/09/30 06:46:50;;;;;;;3.50;2.53;;;9.00;99.90;;;;;;5132229;27;20338;-76
2022/09/30 06:49:16;;;;;;;1.98;1.85;;;9.10;99.90;;;;;;5132406;27;20209;-76
2022/09/30 06:51:43;;;;;;;3.42;2.08;;;9.10;99.90;;;;;;5132244;27;20320;-76
2022/09/30 06:54:11;;;;;;;1.98;1.88;;;9.20;99.90;;;;;;5132200;27;20238;-77
2022/09/30 06:56:38;;;;;;;2.10;1.60;;;9.20;99.90;;;;;;5132402;27;20562;-76
2022/09/30 06:59:04;;;;;;;1.13;1.13;;;9.30;99.90;;;;;;5132154;27;20458;-76
2022/09/30 07:01:33;;;;;;;2.95;1.67;;;9.30;99.90;;;;;;5132207;27;20282;-73
2022/09/30 07:04:02;;;;;;;2.88;2.67;;;9.30;99.90;;;;;;5132335;27;20288;-75
2022/09/30 07:06:29;;;;;;;1.48;1.38;;;9.30;99.90;;;;;;5131804;27;20218;-76
2022/09/30 07:08:56;;;;;;;0.68;0.68;;;9.30;99.90;;;;;;5132114;27;20251;-76
2022/09/30 07:11:23;;;;;;;4.00;2.10;;;9.40;99.90;;;;;;5132208;27;20230;-76
2022/09/30 07:13:50;;;;;;;0.65;0.65;;;9.30;99.90;;;;;;5131813;28;20510;-75
2022/09/30 07:16:19;;;;;;;1.40;1.05;;;9.40;99.90;;;;;;5131744;28;20659;-76
2022/09/30 07:18:48;;;;;;;3.33;2.45;;;9.50;99.90;;;;;;5131934;28;20558;-76
2022/09/30 07:21:15;;;;;;;0.50;0.50;;;9.70;99.90;;;;;;5131814;28;20683;-76
2022/09/30 07:23:46;;;;;;;0.50;0.40;;;9.70;99.90;;;;;;5132022;28;20719;-76
2022/09/30 07:26:15;;;;;;;1.42;1.42;;;9.80;99.90;;;;;;5132249;28;20278;-76
2022/09/30 07:28:42;;;;;;;2.67;2.42;;;9.90;99.90;;;;;;5132156;28;20221;-76
2022/09/30 07:31:11;;;;;;;0.50;0.50;;;10.00;99.90;;;;;;5131744;28;20216;-75
2022/09/30 07:33:40;;;;;;;1.27;1.17;;;10.20;99.90;;;;;;5131863;28;20195;-76
2022/09/30 07:36:09;;;;;;;4.82;2.50;;;10.30;99.90;;;;;;5131982;28;20195;-76
2022/09/30 07:38:40;;;;;;;3.90;3.50;;;10.50;99.90;;;;;;5132230;28;20218;-77
2022/09/30 07:41:11;;;;;;;2.20;1.42;;;10.80;99.90;;;;;;5131749;28;20188;-76
2022/09/30 07:43:39;;;;;;;1.77;1.27;;;11.30;99.90;;;;;;5132072;28;20180;-76
2022/09/30 07:46:08;;;;;;;0.50;0.40;;;11.90;99.90;;;;;;5131763;28;20612;-76
2022/09/30 07:51:23;;;;;;;2.73;2.47;;;12.20;99.90;;;;;;5131004;28;20831;-76
2022/09/30 07:53:51;;;;;;;0.50;0.40;;;12.50;99.90;;;;;;5131587;28;20852;-76
2022/09/30 07:56:19;;;;;;;0.80;0.80;;;13.50;99.90;;;;;;5131542;28;20444;-76
2022/09/30 07:58:46;;;;;;;1.73;1.63;;;15.20;99.90;;;;;;5131746;28;21086;-77
2022/09/30 08:01:13;;;;;;;1.60;1.53;;;16.50;99.90;;;;;;5132136;27;20456;-76
2022/09/30 08:03:43;;;;;;;0.50;0.40;;;17.80;99.90;;;;;;5135407;27;20433;-76
2022/09/30 08:06:12;;;;;;;0.50;0.33;;;18.30;99.90;;;;;;5135416;27;20437;-75
2022/09/30 08:08:41;;;;;;;0.60;0.50;;;19.80;99.90;;;;;;5135676;27;20457;-75
2022/09/30 08:11:07;;;;;;;1.10;0.47;;;20.70;99.90;;;;;;5135096;27;20476;-75
2022/09/30 08:13:34;;;;;;;1.50;1.37;;;20.80;97.70;;;;;;5135297;27;20429;-73
2022/09/30 08:16:02;;;;;;;0.50;0.40;;;21.10;94.30;;;;;;5134559;27;20533;-77
2022/09/30 08:18:29;;;;;;;1.33;1.23;;;21.30;95.20;;;;;;5135350;27;20453;-77
2022/09/30 08:20:56;;;;;;;2.03;1.93;;;21.60;92.20;;;;;;5135379;27;20934;-76
2022/09/30 08:23:23;;;;;;;2.73;1.30;;;21.50;90.50;;;;;;5135269;27;20499;-77
2022/09/30 08:25:51;;;;;;;1.53;1.43;;;21.20;91.40;;;;;;5134746;27;20437;-76
2022/09/30 08:28:18;;;;;;;1.50;1.40;;;21.20;90.70;;;;;;5135016;27;20541;-77
2022/09/30 08:30:45;;;;;;;0.67;0.67;;;20.40;92.10;;;;;;5135314;27;20532;-75
2022/09/30 08:33:11;;;;;;;1.23;0.83;;;20.40;94.30;;;;;;5136148;27;20524;-75
2022/09/30 08:35:38;;;;;;;2.87;2.77;;;21.10;92.50;;;;;;5134673;27;20438;-74
2022/09/30 08:38:05;;;;;;;1.30;1.20;;;21.60;91.30;;;;;;5135144;27;20457;-77
2022/09/30 08:40:36;;;;;;;0.83;0.83;;;21.20;90.90;;;;;;5134987;27;20444;-77
2022/09/30 08:43:17;;;;;;;0.50;0.40;;;21.50;91.40;;;;;;5135014;27;20524;-77
2022/09/30 08:45:56;;;;;;;0.50;0.40;;;21.90;91.70;;;;;;5135356;27;20607;-76
2022/09/30 08:48:33;;;;;;;2.47;2.27;;;23.00;91.50;;;;;;5134437;27;20479;-75
2022/09/30 08:51:07;;;;;;;0.60;0.50;;;23.50;82.40;;;;;;5135133;27;20443;-75
2022/09/30 08:53:40;;;;;;;0.53;0.43;;;23.70;86.00;;;;;;5134792;27;20420;-75
2022/09/30 08:56:08;;;;;;;2.40;2.03;;;24.60;80.70;;;;;;5135169;27;20863;-76
2022/09/30 08:58:40;;;;;;;5.80;2.23;;;24.60;75.60;;;;;;5134460;27;20461;-76
2022/09/30 09:01:16;;;;;;;0.70;0.70;;;23.70;76.70;;;;;;5134576;27;20724;-77
2022/09/30 09:03:44;;;;;;;0.67;0.60;;;22.60;79.20;;;;;;5135065;27;20406;-78
2022/09/30 09:06:26;;;;;;;1.07;0.90;;;22.80;84.10;;;;;;5135010;27;20935;-77
2022/09/30 09:09:10;;;;;;;0.57;0.40;;;24.00;79.10;;;;;;5134061;27;20922;-75
2022/09/30 09:11:59;;;;;;;0.90;0.90;;;24.90;77.50;;;;;;5134729;27;20476;-75
2022/09/30 09:14:48;;;;;;;3.13;2.50;;;25.00;74.00;;;;;;5132979;27;20510;-75
2022/09/30 09:17:28;;;;;;;0.50;0.40;;;24.40;72.80;;;;;;5134161;27;20449;-75
2022/09/30 09:20:02;;;;;;;1.23;1.13;;;24.00;75.40;;;;;;5134334;27;20425;-76
2022/09/30 09:22:31;;;;;;;2.40;2.13;;;24.50;73.90;;;;;;5134030;27;20416;-75
2022/09/30 09:24:59;;;;;;;3.63;2.23;;;23.70;73.00;;;;;;5133766;27;20433;-77
2022/09/30 09:27:35;;;;;;;0.70;0.70;;;22.80;76.00;;;;;;5134065;27;20457;-74
2022/09/30 09:30:07;;;;;;;1.57;1.47;;;22.50;78.10;;;;;;5133907;27;20425;-77
2022/09/30 09:32:34;;;;;;;0.80;0.80;;;22.50;78.30;;;;;;5133949;27;20970;-74
2022/09/30 09:35:07;;;;;;;2.40;1.47;;;22.30;81.30;;;;;;5133949;27;20441;-73
2022/09/30 09:40:33;;;;;;;1.37;0.93;;;23.30;79.40;;;;;;5133655;27;20766;-75
2022/09/30 09:43:11;;;;;;;0.50;0.30;;;24.40;76.70;;;;;;5133957;27;20410;-76
2022/09/30 09:45:47;;;;;;;0.50;0.30;;;25.00;74.30;;;;;;5134080;27;20484;-72
2022/09/30 09:48:14;;;;;;;0.50;0.30;;;25.30;74.70;;;;;;5133105;27;20473;-75
2022/09/30 09:50:53;;;;;;;0.60;0.50;;;26.00;74.10;;;;;;5133848;27;20482;-75
2022/09/30 09:53:32;;;;;;;3.27;2.40;;;26.50;68.40;;;;;;5133492;27;20477;-75
2022/09/30 09:56:01;;;;;;;2.47;2.27;;;25.20;68.60;;;;;;5133242;27;20528;-75
2022/09/30 09:58:28;;;;;;;1.47;1.37;;;24.70;72.20;;;;;;5133636;27;20468;-72
2022/09/30 10:01:31;;;;;;;0.93;0.90;;;23.20;72.10;;;;;;5133534;27;20436;-75
2022/09/30 10:04:09;;;;;;;2.50;2.00;;;22.30;75.90;;;;;;5133392;27;20490;-75
2022/09/30 10:06:47;;;;;;;0.50;0.40;;;22.40;76.30;;;;;;5133175;27;20449;-77
2022/09/30 10:09:29;;;;;;;4.53;2.67;;;23.00;78.00;;;;;;5133552;27;20422;-77
2022/09/30 10:12:25;;;;;;;3.63;3.30;;;22.80;74.80;;;;;;5135211;27;20511;-77
2022/09/30 10:14:59;;;;;;;0.60;0.60;;;22.40;76.00;;;;;;5132876;27;20442;-75
2022/09/30 10:17:30;;;;;;;0.60;0.50;;;22.10;77.30;;;;;;5133068;27;20531;-72
2022/09/30 10:20:06;;;;;;;0.50;0.40;;;22.60;79.00;;;;;;5133256;27;20814;-76
2022/09/30 10:22:34;;;;;;;0.60;0.40;;;23.80;76.70;;;;;;5132829;27;20433;-73
2022/09/30 10:25:19;;;;;;;1.00;0.60;;;24.60;75.40;;;;;;5133027;27;20436;-75
2022/09/30 10:27:55;;;;;;;1.33;1.23;;;24.10;73.50;;;;;;5132990;27;20832;-75
2022/09/30 10:30:44;;;;;;;0.73;0.73;;;23.00;74.80;;;;;;5133152;27;20516;-75
2022/09/30 10:33:19;;;;;;;1.47;1.37;;;23.10;76.10;;;;;;5133086;27;20486;-75
2022/09/30 10:36:04;;;;;;;1.97;1.47;;;23.70;74.80;;;;;;5131872;27;20797;-73
2022/09/30 10:38:33;;;;;;;4.47;2.07;;;24.10;75.90;;;;;;5132809;27;20873;-75
2022/09/30 10:41:01;;;;;;;1.77;1.67;;;23.20;72.70;;;;;;5132440;27;20447;-77
2022/09/30 10:43:32;;;;;;;3.00;2.70;;;22.50;74.50;;;;;;5132678;27;20431;-77
2022/09/30 10:46:02;;;;;;;2.20;2.00;;;22.10;76.20;;;;;;5132625;27;20417;-76
2022/09/30 10:48:34;;;;;;;3.33;1.40;;;22.20;77.50;;;;;;5132180;27;20462;-74
2022/09/30 10:51:01;;;;;;;0.50;0.40;;;22.20;76.90;;;;;;5132286;27;20819;-75
2022/09/30 10:53:32;;;;;;;0.50;0.30;;;22.60;78.50;;;;;;5132647;27;20512;-76
2022/09/30 10:56:00;;;;;;;0.60;0.50;;;23.50;75.70;;;;;;5132303;27;20444;-75
2022/09/30 10:58:43;;;;;;;2.00;1.43;;;22.90;75.50;;;;;;5131921;27;20458;-75
2022/09/30 11:01:17;;;;;;;1.70;1.23;;;22.90;75.90;;;;;;5132474;27;20801;-75
2022/09/30 11:04:01;;;;;;;2.83;2.13;;;23.40;75.20;;;;;;5132341;27;20797;-74
2022/09/30 11:06:32;;;;;;;2.60;2.47;;;23.80;73.50;;;;;;5131562;27;20438;-75
2022/09/30 11:09:06;;;;;;;1.57;0.93;;;23.60;73.20;;;;;;5132760;27;20440;-77
2022/09/30 11:11:38;;;;;;;0.50;0.37;;;22.20;73.20;;;;;;5131928;27;20895;-74
2022/09/30 11:14:23;;;;;;;1.17;1.17;;;21.80;77.50;;;;;;5132296;27;20422;-77
2022/09/30 11:16:57;;;;;;;0.63;0.63;;;21.90;77.20;;;;;;5131970;28;20827;-77
2022/09/30 11:19:31;;;;;;;0.60;0.60;;;21.20;78.60;;;;;;5133066;28;20449;-77
2022/09/30 11:22:04;;;;;;;2.20;1.40;;;20.70;79.60;;;;;;5131809;28;20430;-77
2022/09/30 11:24:38;;;;;;;2.33;1.90;;;20.20;81.40;;;;;;5132524;28;20807;-77
2022/09/30 11:27:12;;;;;;;0.60;0.53;;;19.60;82.20;;;;;;5131879;28;20449;-77
2022/09/30 11:30:01;;;;;;;0.50;0.30;;;19.20;87.80;;;;;;5132417;28;20520;-77
2022/09/30 11:32:40;;;;;;;0.50;0.40;;;19.30;89.00;;;;;;5131595;28;20458;-77
2022/09/30 11:35:27;;;;;;;1.23;1.13;;;19.80;88.60;;;;;;5131822;28;20449;-77
2022/09/30 11:38:09;;;;;;;0.73;0.73;;;20.20;85.00;;;;;;5135258;27;20453;-77
2022/09/30 11:40:40;;;;;;;0.50;0.30;;;21.10;83.00;;;;;;5136014;27;20443;-76
2022/09/30 11:43:23;;;;;;;0.60;0.50;;;22.00;83.30;;;;;;5136383;27;20421;-77
2022/09/30 11:46:08;;;;;;;5.67;1.30;;;23.00;78.80;;;;;;5136103;27;20422;-76
2022/09/30 11:48:52;;;;;;;0.50;0.30;;;22.90;74.50;;;;;;5135657;27;20902;-76
2022/09/30 11:51:29;;;;;;;5.33;2.70;;;21.50;76.80;;;;;;5136013;27;20473;-76
2022/09/30 11:54:11;;;;;;;0.60;0.50;;;20.60;77.80;;;;;;5135417;27;20473;-75
2022/09/30 11:56:45;;;;;;;0.60;0.50;;;20.30;80.10;;;;;;5136034;27;20437;-76
2022/09/30 11:59:17;;;;;;;0.70;0.70;;;20.20;80.40;;;;;;5135996;27;20517;-76
2022/09/30 12:01:48;;;;;;;0.53;0.50;;;20.00;82.70;;;;;;5135582;27;20768;-75
2022/09/30 12:04:20;;;;;;;0.50;0.40;;;20.00;83.00;;;;;;5135435;27;20435;-75
2022/09/30 12:06:54;;;;;;;0.50;0.40;;;19.70;84.20;;;;;;5135854;27;20461;-77
2022/09/30 12:09:25;;;;;;;1.17;0.50;;;19.20;90.50;;;;;;5135618;27;20520;-76
2022/09/30 12:11:56;;;;;;;1.60;1.50;;;19.60;89.10;;;;;;5135376;27;20433;-76
2022/09/30 12:14:29;;;;;;;2.47;1.50;;;20.50;85.60;;;;;;5135331;27;20463;-77
2022/09/30 12:16:58;;;;;;;1.70;1.07;;;20.70;84.30;;;;;;5135388;27;20461;-76
2022/09/30 12:19:30;;;;;;;1.23;0.93;;;20.90;79.80;;;;;;5135178;27;20954;-76
2022/09/30 12:22:05;;;;;;;1.10;1.00;;;21.10;79.70;;;;;;5135189;27;20780;-76
2022/09/30 12:24:36;;;;;;;1.33;0.97;;;21.80;77.80;;;;;;5134967;27;20413;-76
2022/09/30 12:27:03;;;;;;;1.37;1.27;;;21.60;75.10;;;;;;5135082;27;20536;-77
2022/09/30 12:32:54;;;;;;;0.93;0.93;;;21.80;77.00;;;;;;5135239;27;20448;-76
2022/09/30 12:35:37;;;;;;;0.50;0.40;;;22.60;77.80;;;;;;5134740;27;20881;-77
2022/09/30 12:38:24;;;;;;;1.00;0.90;;;23.20;76.10;;;;;;5135060;27;20460;-76
2022/09/30 12:41:02;;;;;;;4.10;1.30;;;23.30;73.20;;;;;;5134897;27;20425;-76
2022/09/30 12:44:17;;;;;;;3.83;1.47;;;23.70;70.70;;;;;;5134956;27;20414;-77
2022/09/30 12:47:05;;;;;;;1.17;0.77;;;23.00;71.60;;;;;;5071073;28;20451;-76
2022/09/30 12:49:33;;;;;;;2.17;2.07;;;22.80;71.70;;;;;;5070186;28;20422;-76
2022/09/30 12:52:06;;;;;;;0.50;0.30;;;21.60;72.20;;;;;;5109243;27;20430;-76
2022/09/30 12:54:39;;;;;;;0.50;0.30;;;20.80;76.30;;;;;;5134033;27;20422;-76
2022/09/30 12:57:09;;;;;;;0.50;0.30;;;20.60;79.00;;;;;;5134832;27;20650;-75
2022/09/30 12:59:38;;;;;;;0.50;0.40;;;21.00;80.10;;;;;;5134820;27;20435;-76
2022/09/30 13:02:07;;;;;;;0.80;0.63;;;21.10;77.10;;;;;;5134926;27;20433;-76
2022/09/30 13:04:36;;;;;;;0.80;0.80;;;21.70;79.90;;;;;;5134211;27;20433;-76
2022/09/30 13:07:21;;;;;;;1.23;1.23;;;22.10;75.50;;;;;;5134322;27;20884;-76
2022/09/30 13:10:02;;;;;;;0.53;0.40;;;22.30;71.90;;;;;;5134960;27;20446;-75
2022/09/30 13:12:41;;;;;;;2.13;1.63;;;22.30;70.00;;;;;;5134670;27;20596;-75
2022/09/30 13:15:40;;;;;;;1.20;1.10;;;21.60;70.00;;;;;;5133734;27;20520;-76
2022/09/30 13:18:46;;;;;;;0.60;0.50;;;21.00;72.80;;;;;;5134504;27;20457;-75
2022/09/30 13:21:22;;;;;;;1.00;0.60;;;20.30;72.90;;;;;;5110326;27;20478;-76
2022/09/30 13:23:50;;;;;;;1.90;1.80;;;20.50;74.90;;;;;;5134172;27;20417;-75
2022/09/30 13:26:38;;;;;;;5.13;1.33;;;20.80;75.50;;;;;;5134384;27;20440;-75
2022/09/30 13:29:33;;;;;;;1.13;1.03;;;20.60;75.90;;;;;;5133633;27;20473;-76